Terminal Aerodrome Forecast
Issued by NWS Wilmington, OH

Current Version | Previous Version | Text Only | Print | Product List | Glossary Off
Versions: 1 2 3 4 5 6 7 8 9 10 11 12 13 14 15 16 17 18 19 20 21 22 23 24 25 26 27 28 29

000
FTUS41 KILN 280255 AAB
TAFILN
TAF AMD
KILN 280255Z 2803/2824 07007KT 6SM HZ BKN023 OVC100
     FM280400 09008KT 5SM -SHRA BR OVC015
     FM280800 12005KT 3SM BR VCSH OVC008
     FM281400 24008KT P6SM OVC018
     FM281800 27010KT P6SM VCSH BKN035=

USA.gov is the U.S. government's official web portal to all federal, state and local government web resources and services.